sensor_id;sensor_type;location;lat;lon;timestamp;temperature;humidity
16867;DHT22;8550;52.596;13.320;2023-09-30T00:02:21;16.80;99.90
16867;DHT22;8550;52.596;13.320;2023-09-30T00:07:24;16.70;99.90
16867;DHT22;8550;52.596;13.320;2023-09-30T00:12:27;16.50;99.90
16867;DHT22;8550;52.596;13.320;2023-09-30T00:17:29;16.40;99.90
16867;DHT22;8550;52.596;13.320;2023-09-30T00:22:32;16.20;99.90
16867;DHT22;8550;52.596;13.320;2023-09-30T00:27:34;16.10;99.90
16867;DHT22;8550;52.596;13.320;2023-09-30T00:32:36;16.00;99.90
16867;DHT22;8550;52.596;13.320;2023-09-30T00:37:39;15.90;99.90
16867;DHT22;8550;52.596;13.320;2023-09-30T00:42:42;15.80;99.90
16867;DHT22;8550;52.596;13.320;2023-09-30T00:47:44;15.70;99.90
16867;DHT22;8550;52.596;13.320;2023-09-30T00:52:48;15.60;99.90
16867;DHT22;8550;52.596;13.320;2023-09-30T00:57:51;15.40;99.90
16867;DHT22;8550;52.596;13.320;2023-09-30T01:02:53;15.30;99.90
16867;DHT22;8550;52.596;13.320;2023-09-30T01:07:56;15.30;99.90
16867;DHT22;8550;52.596;13.320;2023-09-30T01:12:58;15.10;99.90
16867;DHT22;8550;52.596;13.320;2023-09-30T01:18:00;15.00;99.90
16867;DHT22;8550;52.596;13.320;2023-09-30T01:23:03;15.00;99.90
16867;DHT22;8550;52.596;13.320;2023-09-30T01:28:08;14.80;99.90
16867;DHT22;8550;52.596;13.320;2023-09-30T01:33:10;14.70;99.90
16867;DHT22;8550;52.596;13.320;2023-09-30T01:38:14;14.60;99.90
16867;DHT22;8550;52.596;13.320;2023-09-30T01:43:16;14.60;99.90
16867;DHT22;8550;52.596;13.320;2023-09-30T01:48:18;14.40;99.90
16867;DHT22;8550;52.596;13.320;2023-09-30T01:53:22;14.40;99.90
16867;DHT22;8550;52.596;13.320;2023-09-30T01:58:23;14.20;99.90
16867;DHT22;8550;52.596;13.320;2023-09-30T02:03:26;14.10;99.90
16867;DHT22;8550;52.596;13.320;2023-09-30T02:08:31;14.00;99.90
16867;DHT22;8550;52.596;13.320;2023-09-30T02:13:33;13.90;99.90
16867;DHT22;8550;52.596;13.320;2023-09-30T02:18:35;13.80;99.90
16867;DHT22;8550;52.596;13.320;2023-09-30T02:23:38;13.70;99.90
16867;DHT22;8550;52.596;13.320;2023-09-30T02:28:40;13.70;99.90
16867;DHT22;8550;52.596;13.320;2023-09-30T02:33:42;13.60;99.90
16867;DHT22;8550;52.596;13.320;2023-09-30T02:38:46;13.50;99.90
16867;DHT22;8550;52.596;13.320;2023-09-30T02:43:48;13.50;99.90
16867;DHT22;8550;52.596;13.320;2023-09-30T02:48:50;13.40;99.90
16867;DHT22;8550;52.596;13.320;2023-09-30T02:53:53;13.40;99.90
16867;DHT22;8550;52.596;13.320;2023-09-30T02:58:56;13.20;99.90
16867;DHT22;8550;52.596;13.320;2023-09-30T03:03:58;13.20;99.90
16867;DHT22;8550;52.596;13.320;2023-09-30T03:09:01;13.20;99.90
16867;DHT22;8550;52.596;13.320;2023-09-30T03:14:04;13.20;99.90
16867;DHT22;8550;52.596;13.320;2023-09-30T03:19:08;13.20;99.90
16867;DHT22;8550;52.596;13.320;2023-09-30T03:24:13;13.30;99.90
16867;DHT22;8550;52.596;13.320;2023-09-30T03:29:15;13.20;99.90
16867;DHT22;8550;52.596;13.320;2023-09-30T03:34:17;13.20;99.90
16867;DHT22;8550;52.596;13.320;2023-09-30T03:39:22;13.10;99.90
16867;DHT22;8550;52.596;13.320;2023-09-30T03:44:27;13.10;99.90
16867;DHT22;8550;52.596;13.320;2023-09-30T03:49:29;13.10;99.90
16867;DHT22;8550;52.596;13.320;2023-09-30T03:54:33;13.00;99.90
16867;DHT22;8550;52.596;13.320;2023-09-30T03:59:35;13.00;99.90
16867;DHT22;8550;52.596;13.320;2023-09-30T04:04:37;13.00;99.90
16867;DHT22;8550;52.596;13.320;2023-09-30T04:09:40;12.90;99.90
16867;DHT22;8550;52.596;13.320;2023-09-30T04:14:42;12.80;99.90
16867;DHT22;8550;52.596;13.320;2023-09-30T04:19:44;12.80;99.90
16867;DHT22;8550;52.596;13.320;2023-09-30T04:24:48;12.90;99.90
16867;DHT22;8550;52.596;13.320;2023-09-30T04:29:50;12.80;99.90
16867;DHT22;8550;52.596;13.320;2023-09-30T04:34:52;12.70;99.90
16867;DHT22;8550;52.596;13.320;2023-09-30T04:39:56;12.80;99.90
16867;DHT22;8550;52.596;13.320;2023-09-30T04:44:59;12.80;99.90
16867;DHT22;8550;52.596;13.320;2023-09-30T04:50:01;12.80;99.90
16867;DHT22;8550;52.596;13.320;2023-09-30T04:55:07;12.80;99.90
16867;DHT22;8550;52.596;13.320;2023-09-30T05:00:10;12.70;99.90
16867;DHT22;8550;52.596;13.320;2023-09-30T05:05:13;12.70;99.90
16867;DHT22;8550;52.596;13.320;2023-09-30T05:10:16;12.70;99.90
16867;DHT22;8550;52.596;13.320;2023-09-30T05:15:21;12.60;99.90
16867;DHT22;8550;52.596;13.320;2023-09-30T05:20:23;12.60;99.90
16867;DHT22;8550;52.596;13.320;2023-09-30T05:25:26;12.70;99.90
16867;DHT22;8550;52.596;13.320;2023-09-30T05:30:28;12.70;99.90
16867;DHT22;8550;52.596;13.320;2023-09-30T05:35:30;12.70;99.90
16867;DHT22;8550;52.596;13.320;2023-09-30T05:40:34;12.70;99.90
16867;DHT22;8550;52.596;13.320;2023-09-30T05:45:36;12.80;99.90
16867;DHT22;8550;52.596;13.320;2023-09-30T05:50:38;12.90;99.90
16867;DHT22;8550;52.596;13.320;2023-09-30T05:55:41;12.90;99.90
16867;DHT22;8550;52.596;13.320;2023-09-30T06:00:43;13.10;99.90
16867;DHT22;8550;52.596;13.320;2023-09-30T06:05:45;13.30;99.90
16867;DHT22;8550;52.596;13.320;2023-09-30T06:10:48;13.60;99.90
16867;DHT22;8550;52.596;13.320;2023-09-30T06:15:50;13.70;99.90
16867;DHT22;8550;52.596;13.320;2023-09-30T06:20:52;13.80;99.90
16867;DHT22;8550;52.596;13.320;2023-09-30T06:25:55;13.90;99.90
16867;DHT22;8550;52.596;13.320;2023-09-30T06:30:57;13.80;99.90
16867;DHT22;8550;52.596;13.320;2023-09-30T06:35:59;13.90;99.90
16867;DHT22;8550;52.596;13.320;2023-09-30T06:41:04;13.80;99.90
16867;DHT22;8550;52.596;13.320;2023-09-30T06:46:06;13.70;99.90
16867;DHT22;8550;52.596;13.320;2023-09-30T06:51:13;13.80;99.90
16867;DHT22;8550;52.596;13.320;2023-09-30T06:56:17;14.10;99.90
16867;DHT22;8550;52.596;13.320;2023-09-30T07:01:19;14.30;99.90
16867;DHT22;8550;52.596;13.320;2023-09-30T07:06:24;14.60;99.90
16867;DHT22;8550;52.596;13.320;2023-09-30T07:11:29;14.90;99.90
16867;DHT22;8550;52.596;13.320;2023-09-30T07:16:33;14.70;99.90
16867;DHT22;8550;52.596;13.320;2023-09-30T07:21:35;14.80;99.90
16867;DHT22;8550;52.596;13.320;2023-09-30T07:26:39;15.10;99.90
16867;DHT22;8550;52.596;13.320;2023-09-30T07:31:41;15.10;99.90
16867;DHT22;8550;52.596;13.320;2023-09-30T07:36:43;15.30;99.90
16867;DHT22;8550;52.596;13.320;2023-09-30T07:41:46;15.20;99.90
16867;DHT22;8550;52.596;13.320;2023-09-30T07:46:48;15.10;99.90
16867;DHT22;8550;52.596;13.320;2023-09-30T07:51:50;15.10;99.90
16867;DHT22;8550;52.596;13.320;2023-09-30T07:56:53;15.30;99.90
16867;DHT22;8550;52.596;13.320;2023-09-30T08:01:55;15.20;99.90
16867;DHT22;8550;52.596;13.320;2023-09-30T08:06:57;15.10;99.90
16867;DHT22;8550;52.596;13.320;2023-09-30T08:12:01;15.20;99.90
16867;DHT22;8550;52.596;13.320;2023-09-30T08:17:03;15.30;99.90
16867;DHT22;8550;52.596;13.320;2023-09-30T08:22:06;15.50;99.90
16867;DHT22;8550;52.596;13.320;2023-09-30T08:27:09;15.80;99.90
16867;DHT22;8550;52.596;13.320;2023-09-30T08:32:11;15.90;99.90
16867;DHT22;8550;52.596;13.320;2023-09-30T08:37:13;16.00;99.90
16867;DHT22;8550;52.596;13.320;2023-09-30T08:42:17;15.90;99.90
16867;DHT22;8550;52.596;13.320;2023-09-30T08:47:20;15.90;99.90
16867;DHT22;8550;52.596;13.320;2023-09-30T08:52:23;16.20;99.90
16867;DHT22;8550;52.596;13.320;2023-09-30T08:57:26;16.10;99.90
16867;DHT22;8550;52.596;13.320;2023-09-30T09:02:29;15.90;99.90
16867;DHT22;8550;52.596;13.320;2023-09-30T09:07:31;16.10;99.90
16867;DHT22;8550;52.596;13.320;2023-09-30T09:12:36;16.40;99.90
16867;DHT22;8550;52.596;13.320;2023-09-30T09:17:43;16.70;99.90
16867;DHT22;8550;52.596;13.320;2023-09-30T09:22:46;17.00;99.90
16867;DHT22;8550;52.596;13.320;2023-09-30T09:27:50;17.20;99.90
16867;DHT22;8550;52.596;13.320;2023-09-30T09:32:59;17.50;99.90
16867;DHT22;8550;52.596;13.320;2023-09-30T09:38:03;17.60;99.90
16867;DHT22;8550;52.596;13.320;2023-09-30T09:43:07;17.80;99.90
16867;DHT22;8550;52.596;13.320;2023-09-30T09:48:10;17.90;99.90
16867;DHT22;8550;52.596;13.320;2023-09-30T09:53:13;17.90;99.90
16867;DHT22;8550;52.596;13.320;2023-09-30T09:58:18;17.90;99.90
16867;DHT22;8550;52.596;13.320;2023-09-30T10:03:22;18.30;99.90
16867;DHT22;8550;52.596;13.320;2023-09-30T10:08:32;18.50;99.90
16867;DHT22;8550;52.596;13.320;2023-09-30T10:13:52;18.70;99.90
16867;DHT22;8550;52.596;13.320;2023-09-30T10:19:08;18.50;99.90
16867;DHT22;8550;52.596;13.320;2023-09-30T10:24:29;18.40;99.90
16867;DHT22;8550;52.596;13.320;2023-09-30T10:29:41;18.40;99.90
16867;DHT22;8550;52.596;13.320;2023-09-30T10:34:48;18.90;99.90
16867;DHT22;8550;52.596;13.320;2023-09-30T10:39:58;19.50;99.90
16867;DHT22;8550;52.596;13.320;2023-09-30T10:45:04;20.30;99.90
16867;DHT22;8550;52.596;13.320;2023-09-30T10:50:49;20.90;99.90
16867;DHT22;8550;52.596;13.320;2023-09-30T10:55:55;21.80;99.90
16867;DHT22;8550;52.596;13.320;2023-09-30T11:00:58;21.50;99.70
16867;DHT22;8550;52.596;13.320;2023-09-30T11:06:00;21.40;99.90
16867;DHT22;8550;52.596;13.320;2023-09-30T11:11:02;20.40;99.90
16867;DHT22;8550;52.596;13.320;2023-09-30T11:16:05;21.00;99.90
16867;DHT22;8550;52.596;13.320;2023-09-30T11:21:09;21.70;99.90
16867;DHT22;8550;52.596;13.320;2023-09-30T11:26:12;22.30;95.80
16867;DHT22;8550;52.596;13.320;2023-09-30T11:31:16;22.20;95.20
16867;DHT22;8550;52.596;13.320;2023-09-30T11:36:19;22.80;94.30
16867;DHT22;8550;52.596;13.320;2023-09-30T11:41:22;23.50;90.20
16867;DHT22;8550;52.596;13.320;2023-09-30T11:46:25;23.90;87.50
16867;DHT22;8550;52.596;13.320;2023-09-30T11:51:29;24.50;83.90
16867;DHT22;8550;52.596;13.320;2023-09-30T11:56:31;23.30;84.30
16867;DHT22;8550;52.596;13.320;2023-09-30T12:01:35;21.90;90.30
16867;DHT22;8550;52.596;13.320;2023-09-30T12:06:38;21.30;92.50
16867;DHT22;8550;52.596;13.320;2023-09-30T12:11:41;20.80;95.80
16867;DHT22;8550;52.596;13.320;2023-09-30T12:16:46;20.60;96.20
16867;DHT22;8550;52.596;13.320;2023-09-30T12:21:48;20.70;94.40
16867;DHT22;8550;52.596;13.320;2023-09-30T12:26:51;20.60;95.00
16867;DHT22;8550;52.596;13.320;2023-09-30T12:31:54;20.70;94.40
16867;DHT22;8550;52.596;13.320;2023-09-30T12:36:56;20.90;95.20
16867;DHT22;8550;52.596;13.320;2023-09-30T12:41:58;20.70;94.60
16867;DHT22;8550;52.596;13.320;2023-09-30T12:47:02;20.80;93.80
16867;DHT22;8550;52.596;13.320;2023-09-30T12:52:05;21.00;94.00
16867;DHT22;8550;52.596;13.320;2023-09-30T12:57:07;20.90;93.80
16867;DHT22;8550;52.596;13.320;2023-09-30T13:02:14;21.30;93.10
16867;DHT22;8550;52.596;13.320;2023-09-30T13:07:18;21.60;92.20
16867;DHT22;8550;52.596;13.320;2023-09-30T13:12:20;23.10;87.50
16867;DHT22;8550;52.596;13.320;2023-09-30T13:17:24;23.90;82.70
16867;DHT22;8550;52.596;13.320;2023-09-30T13:22:25;23.90;80.10
16867;DHT22;8550;52.596;13.320;2023-09-30T13:27:27;23.50;77.50
16867;DHT22;8550;52.596;13.320;2023-09-30T13:32:31;23.30;75.80
16867;DHT22;8550;52.596;13.320;2023-09-30T13:37:35;23.20;74.50
16867;DHT22;8550;52.596;13.320;2023-09-30T13:42:37;22.90;75.00
16867;DHT22;8550;52.596;13.320;2023-09-30T13:47:40;23.00;75.70
16867;DHT22;8550;52.596;13.320;2023-09-30T13:52:42;23.60;72.60
16867;DHT22;8550;52.596;13.320;2023-09-30T13:57:44;23.80;71.40
16867;DHT22;8550;52.596;13.320;2023-09-30T14:02:48;23.80;68.50
16867;DHT22;8550;52.596;13.320;2023-09-30T14:07:51;23.40;69.80
16867;DHT22;8550;52.596;13.320;2023-09-30T14:12:53;24.10;69.90
16867;DHT22;8550;52.596;13.320;2023-09-30T14:17:57;24.20;66.20
16867;DHT22;8550;52.596;13.320;2023-09-30T14:22:59;24.50;67.10
16867;DHT22;8550;52.596;13.320;2023-09-30T14:28:03;24.80;66.20
16867;DHT22;8550;52.596;13.320;2023-09-30T14:33:06;24.70;67.10
16867;DHT22;8550;52.596;13.320;2023-09-30T14:38:08;24.70;65.40
16867;DHT22;8550;52.596;13.320;2023-09-30T14:43:11;23.60;68.20
16867;DHT22;8550;52.596;13.320;2023-09-30T14:48:14;24.10;68.60
16867;DHT22;8550;52.596;13.320;2023-09-30T14:53:16;24.00;67.70
16867;DHT22;8550;52.596;13.320;2023-09-30T14:58:20;23.70;68.90
16867;DHT22;8550;52.596;13.320;2023-09-30T15:03:23;23.20;69.90
16867;DHT22;8550;52.596;13.320;2023-09-30T15:08:25;22.50;71.00
16867;DHT22;8550;52.596;13.320;2023-09-30T15:13:27;21.90;73.20
16867;DHT22;8550;52.596;13.320;2023-09-30T15:18:30;21.50;76.10
16867;DHT22;8550;52.596;13.320;2023-09-30T15:23:32;21.00;76.90
16867;DHT22;8550;52.596;13.320;2023-09-30T15:28:34;20.40;80.10
16867;DHT22;8550;52.596;13.320;2023-09-30T15:33:37;20.70;80.50
16867;DHT22;8550;52.596;13.320;2023-09-30T15:38:39;20.70;79.10
16867;DHT22;8550;52.596;13.320;2023-09-30T15:43:41;20.00;82.40
16867;DHT22;8550;52.596;13.320;2023-09-30T15:48:45;19.50;85.60
16867;DHT22;8550;52.596;13.320;2023-09-30T15:53:47;19.40;88.10
16867;DHT22;8550;52.596;13.320;2023-09-30T15:58:48;19.20;90.30
16867;DHT22;8550;52.596;13.320;2023-09-30T16:03:52;18.80;92.30
16867;DHT22;8550;52.596;13.320;2023-09-30T16:08:54;18.60;94.00
16867;DHT22;8550;52.596;13.320;2023-09-30T16:13:56;18.30;95.50
16867;DHT22;8550;52.596;13.320;2023-09-30T16:18:59;18.10;98.80
16867;DHT22;8550;52.596;13.320;2023-09-30T16:24:01;17.90;99.80
16867;DHT22;8550;52.596;13.320;2023-09-30T16:29:03;17.70;99.90
16867;DHT22;8550;52.596;13.320;2023-09-30T16:34:07;17.40;99.90
16867;DHT22;8550;52.596;13.320;2023-09-30T16:39:09;17.00;99.90
16867;DHT22;8550;52.596;13.320;2023-09-30T16:44:11;16.80;99.90
16867;DHT22;8550;52.596;13.320;2023-09-30T16:49:14;16.60;99.90
16867;DHT22;8550;52.596;13.320;2023-09-30T16:54:16;16.40;99.90
16867;DHT22;8550;52.596;13.320;2023-09-30T16:59:18;16.20;99.90
16867;DHT22;8550;52.596;13.320;2023-09-30T17:04:21;16.10;99.90
16867;DHT22;8550;52.596;13.320;2023-09-30T17:09:23;15.80;99.90
16867;DHT22;8550;52.596;13.320;2023-09-30T17:14:25;15.70;99.90
16867;DHT22;8550;52.596;13.320;2023-09-30T17:19:29;15.70;99.90
16867;DHT22;8550;52.596;13.320;2023-09-30T17:24:32;15.50;99.90
16867;DHT22;8550;52.596;13.320;2023-09-30T17:29:34;15.30;99.90
16867;DHT22;8550;52.596;13.320;2023-09-30T17:34:38;15.10;99.90
16867;DHT22;8550;52.596;13.320;2023-09-30T17:39:40;15.00;99.90
16867;DHT22;8550;52.596;13.320;2023-09-30T17:44:43;14.80;99.90
16867;DHT22;8550;52.596;13.320;2023-09-30T17:49:47;14.70;99.90
16867;DHT22;8550;52.596;13.320;2023-09-30T17:54:49;14.50;99.90
16867;DHT22;8550;52.596;13.320;2023-09-30T17:59:51;14.40;99.90
16867;DHT22;8550;52.596;13.320;2023-09-30T18:04:54;14.20;99.90
16867;DHT22;8550;52.596;13.320;2023-09-30T18:09:56;14.20;99.90
16867;DHT22;8550;52.596;13.320;2023-09-30T18:14:58;14.00;99.90
16867;DHT22;8550;52.596;13.320;2023-09-30T18:20:03;13.90;99.90
16867;DHT22;8550;52.596;13.320;2023-09-30T18:25:07;13.80;99.90
16867;DHT22;8550;52.596;13.320;2023-09-30T18:30:09;13.80;99.90
16867;DHT22;8550;52.596;13.320;2023-09-30T18:35:12;13.70;99.90
16867;DHT22;8550;52.596;13.320;2023-09-30T18:40:15;13.60;99.90
16867;DHT22;8550;52.596;13.320;2023-09-30T18:45:17;13.60;99.90
16867;DHT22;8550;52.596;13.320;2023-09-30T18:50:20;13.50;99.90
16867;DHT22;8550;52.596;13.320;2023-09-30T18:55:22;13.50;99.90
16867;DHT22;8550;52.596;13.320;2023-09-30T19:00:24;13.40;99.90
16867;DHT22;8550;52.596;13.320;2023-09-30T19:05:28;13.30;99.90
16867;DHT22;8550;52.596;13.320;2023-09-30T19:10:31;13.00;99.90
16867;DHT22;8550;52.596;13.320;2023-09-30T19:15:33;13.30;99.90
16867;DHT22;8550;52.596;13.320;2023-09-30T19:20:37;13.30;99.90
16867;DHT22;8550;52.596;13.320;2023-09-30T19:25:39;13.20;99.90
16867;DHT22;8550;52.596;13.320;2023-09-30T19:30:43;13.10;99.90
16867;DHT22;8550;52.596;13.320;2023-09-30T19:35:48;13.10;99.90
16867;DHT22;8550;52.596;13.320;2023-09-30T19:40:50;13.00;99.90
16867;DHT22;8550;52.596;13.320;2023-09-30T19:45:57;12.90;99.90
16867;DHT22;8550;52.596;13.320;2023-09-30T19:51:01;12.80;99.90
16867;DHT22;8550;52.596;13.320;2023-09-30T19:56:04;12.70;99.90
16867;DHT22;8550;52.596;13.320;2023-09-30T20:01:06;12.80;99.90
16867;DHT22;8550;52.596;13.320;2023-09-30T20:06:21;12.80;99.90
16867;DHT22;8550;52.596;13.320;2023-09-30T20:11:25;12.70;99.90
16867;DHT22;8550;52.596;13.320;2023-09-30T20:16:28;12.70;99.90
16867;DHT22;8550;52.596;13.320;2023-09-30T20:21:31;12.60;99.90
16867;DHT22;8550;52.596;13.320;2023-09-30T20:26:34;12.60;99.90
16867;DHT22;8550;52.596;13.320;2023-09-30T20:31:36;12.60;99.90
16867;DHT22;8550;52.596;13.320;2023-09-30T20:36:39;12.70;99.90
16867;DHT22;8550;52.596;13.320;2023-09-30T20:41:41;12.60;99.90
16867;DHT22;8550;52.596;13.320;2023-09-30T20:46:43;12.60;99.90
16867;DHT22;8550;52.596;13.320;2023-09-30T20:51:49;12.70;99.90
16867;DHT22;8550;52.596;13.320;2023-09-30T20:56:50;12.60;99.90
16867;DHT22;8550;52.596;13.320;2023-09-30T21:01:54;12.60;99.90
16867;DHT22;8550;52.596;13.320;2023-09-30T21:06:57;12.70;99.90
16867;DHT22;8550;52.596;13.320;2023-09-30T21:11:59;12.60;99.90
16867;DHT22;8550;52.596;13.320;2023-09-30T21:17:01;12.70;99.90
16867;DHT22;8550;52.596;13.320;2023-09-30T21:22:04;12.60;99.90
16867;DHT22;8550;52.596;13.320;2023-09-30T21:27:06;12.70;99.90
16867;DHT22;8550;52.596;13.320;2023-09-30T21:32:08;12.60;99.90
16867;DHT22;8550;52.596;13.320;2023-09-30T21:37:11;12.70;99.90
16867;DHT22;8550;52.596;13.320;2023-09-30T21:42:13;12.60;99.90
16867;DHT22;8550;52.596;13.320;2023-09-30T21:47:16;12.50;99.90
16867;DHT22;8550;52.596;13.320;2023-09-30T21:52:19;12.50;99.90
16867;DHT22;8550;52.596;13.320;2023-09-30T21:57:21;12.60;99.90
16867;DHT22;8550;52.596;13.320;2023-09-30T22:02:23;12.80;99.90
16867;DHT22;8550;52.596;13.320;2023-09-30T22:07:28;12.80;99.90
16867;DHT22;8550;52.596;13.320;2023-09-30T22:12:32;13.00;99.90
16867;DHT22;8550;52.596;13.320;2023-09-30T22:17:34;13.10;99.90
16867;DHT22;8550;52.596;13.320;2023-09-30T22:22:37;13.10;99.90
16867;DHT22;8550;52.596;13.320;2023-09-30T22:27:40;13.20;99.90
16867;DHT22;8550;52.596;13.320;2023-09-30T22:32:42;13.20;99.90
16867;DHT22;8550;52.596;13.320;2023-09-30T22:37:45;13.30;99.90
16867;DHT22;8550;52.596;13.320;2023-09-30T22:42:47;13.30;99.90
16867;DHT22;8550;52.596;13.320;2023-09-30T22:47:50;13.30;99.90
16867;DHT22;8550;52.596;13.320;2023-09-30T22:52:54;13.30;99.90
16867;DHT22;8550;52.596;13.320;2023-09-30T22:57:56;13.50;99.90
16867;DHT22;8550;52.596;13.320;2023-09-30T23:02:59;13.60;99.90
16867;DHT22;8550;52.596;13.320;2023-09-30T23:08:02;13.70;99.90
16867;DHT22;8550;52.596;13.320;2023-09-30T23:13:04;13.80;99.90
16867;DHT22;8550;52.596;13.320;2023-09-30T23:18:07;13.80;99.90
16867;DHT22;8550;52.596;13.320;2023-09-30T23:23:11;13.80;99.90
16867;DHT22;8550;52.596;13.320;2023-09-30T23:28:13;13.70;99.90
16867;DHT22;8550;52.596;13.320;2023-09-30T23:33:17;13.80;99.90
16867;DHT22;8550;52.596;13.320;2023-09-30T23:38:21;13.90;99.90
16867;DHT22;8550;52.596;13.320;2023-09-30T23:43:23;14.00;99.90
16867;DHT22;8550;52.596;13.320;2023-09-30T23:48:26;13.90;99.90
16867;DHT22;8550;52.596;13.320;2023-09-30T23:53:29;13.80;99.90
16867;DHT22;8550;52.596;13.320;2023-09-30T23:58:35;13.80;99.90
